• Join FlightAware (Why Join?)
  • Login
  • US Flag 
08:00AM EDT


 

Airport Tracker/Info


-or-


 

Live Flight TrackerFlight Track Log ✈ N990TC ✈ 07-Jul-2013 ✈ KHOU - KTPL

Flight Track Log - Related Links

Times and Time Zones

All times are in EDT time to prevent confusion due to time zone crossing. See the N990TC flight status page for this flight to view local times or setup timezone preferences in your user account.

Time Position Orientation Groundspeed Altitude Reporting Facility
EDT Latitude Longitude Course Direction KTS MPH feet Rate Location/Type
04:53PM 29.6394 -95.2861 208° Southwest 157 181 400  Level Houston Center
04:54PM 29.5758 -95.3253 208° Southwest 210 242 4,000 2,460 Climbing Houston Center
04:55PM 29.5533 -95.3492 223° Southwest 214 246 5,300 2,340 Climbing Houston Center
04:56PM 29.5200 -95.4178 241° Southwest 247 284 8,000 2,580 Climbing Houston Center
04:57PM 29.5725 -95.5094 303° West 296 341 10,700 2,520 Climbing Houston Center
04:58PM 29.6292 -95.5747 315° West 291 335 13,300 2,460 Climbing Houston Center
04:59PM 29.6850 -95.6403 314° West 286 329 15,800 1,260 Climbing Houston Center
05:00PM 29.7472 -95.7114 315° West 310 357 16,000 60 Climbing Houston Center
05:01PM 29.8172 -95.7958 314° West 360 414 16,000  Level Houston Center
05:02PM 29.8886 -95.8781 315° West 363 418 16,000  Level Houston Center
05:03PM 29.9728 -95.9794 314° West 363 418 16,000  Level Houston Center
05:04PM 30.0325 -96.0497 314° West 364 419 16,000  Level Houston Center
05:05PM 30.1164 -96.1500 314° West 364 419 16,000  Level Houston Center
05:06PM 30.1847 -96.2319 314° West 365 420 16,000  Level Houston Center
05:07PM 30.2547 -96.3197 313° West 367 422 16,000  Level Houston Center
05:08PM 30.3172 -96.4156 307° West 369 425 16,000  Level Houston Center
05:09PM 30.3897 -96.5261 307° West 368 423 16,000  Level Houston Center
05:10PM 30.4575 -96.6164 311° West 368 423 16,000  Level Houston Center
05:11PM 30.5317 -96.6972 317° Northwest 364 419 16,000 -120 Level Houston Center
05:12PM 30.6047 -96.7803 316° Northwest 366 421 15,800 -600 Descending Houston Center
05:13PM 30.6756 -96.8611 316° Northwest 356 410 14,800 -1,020 Descending Houston Center
05:14PM 30.7453 -96.9394 316° Northwest 348 400 13,700 -1,260 Descending Houston Center
05:16PM 30.8158 -97.0197 316° Northwest 351 404 12,200 -1,560 Descending Houston Center
05:17PM 30.8956 -97.1064 317° Northwest 336 387 10,500 -1,980 Descending Houston Center
05:18PM 30.9539 -97.1778 314° West 303 349 8,200 -1,980 Descending Houston Center
05:19PM 31.0111 -97.2447 315° West 298 343 6,500 -1,980 Descending Houston Center
05:20PM 31.0692 -97.3106 316° Northwest 296 341 4,200 -2,280 Descending Houston Center